Time;durP1;ratioP1;P1;durP2;ratioP2;P2;SDS_P1;SDS_P2;PMS_P1;PMS_P2;Temp;Humidity;BMP_temperature;BMP_pressure;BME280_temperature;BME280_humidity;BME280_pressure;Samples;Min_cycle;Max_cycle;Signal;HPM_P1;HPM_P2
2024/02/25 00:00:14;;;;;;;6.68;3.60;;;3.90;99.90;;;;;;4940201;29;20130;-86
2024/02/25 00:02:41;;;;;;;8.05;3.30;;;3.90;99.90;;;;;;4930538;29;20084;-86
2024/02/25 00:05:09;;;;;;;8.18;3.70;;;4.90;99.90;;;;;;4933780;29;20047;-85
2024/02/25 00:07:36;;;;;;;7.07;3.33;;;3.90;99.90;;;;;;4940485;29;20044;-86
2024/02/25 00:10:03;;;;;;;6.47;3.60;;;3.90;99.90;;;;;;4940201;29;20071;-86
2024/02/25 00:12:30;;;;;;;5.82;3.33;;;3.90;99.90;;;;;;4937118;29;20781;-86
2024/02/25 00:14:56;;;;;;;8.60;4.00;;;3.80;99.90;;;;;;4938626;29;20047;-85
2024/02/25 00:17:23;;;;;;;7.45;3.90;;;3.80;99.90;;;;;;4939829;29;20047;-86
2024/02/25 00:19:50;;;;;;;8.18;3.88;;;3.80;99.90;;;;;;4921594;29;20047;-86
2024/02/25 00:22:16;;;;;;;7.78;3.92;;;4.30;99.90;;;;;;4933825;29;20107;-86
2024/02/25 00:24:43;;;;;;;8.98;3.95;;;3.80;99.90;;;;;;4931900;29;20040;-86
2024/02/25 00:27:10;;;;;;;7.53;3.85;;;4.50;99.90;;;;;;4939560;29;20043;-86
2024/02/25 00:29:36;;;;;;;6.55;3.72;;;4.50;99.90;;;;;;4939744;29;20039;-85
2024/02/25 00:32:03;;;;;;;7.85;4.38;;;3.80;99.90;;;;;;4938454;29;20039;-85
2024/02/25 00:34:32;;;;;;;7.70;3.92;;;3.80;99.90;;;;;;4950780;29;20043;-86
2024/02/25 00:36:59;;;;;;;7.25;4.15;;;3.80;99.90;;;;;;4952224;29;20172;-86
2024/02/25 00:39:26;;;;;;;6.97;4.05;;;3.90;99.90;;;;;;4921010;29;20422;-86
2024/02/25 00:41:55;;;;;;;8.15;3.97;;;4.60;99.90;;;;;;4939737;29;20044;-86
2024/02/25 00:44:22;;;;;;;7.38;3.90;;;3.90;99.90;;;;;;4939393;29;20042;-85
2024/02/25 00:46:48;;;;;;;9.32;3.85;;;4.90;99.90;;;;;;4939603;29;20610;-86
2024/02/25 00:49:15;;;;;;;6.35;4.05;;;4.50;99.90;;;;;;4948652;29;20088;-85
2024/02/25 00:51:42;;;;;;;8.63;4.20;;;3.80;99.90;;;;;;4933069;29;20122;-86
2024/02/25 00:54:08;;;;;;;6.60;4.00;;;3.80;99.90;;;;;;4943958;29;20079;-85
2024/02/25 00:56:35;;;;;;;9.82;4.57;;;3.80;99.90;;;;;;4939303;29;20497;-86
2024/02/25 00:59:01;;;;;;;8.38;3.85;;;3.80;99.90;;;;;;4934789;29;20056;-85
2024/02/25 01:01:28;;;;;;;9.80;4.82;;;3.80;99.90;;;;;;4936312;29;20046;-85
2024/02/25 01:03:55;;;;;;;10.43;5.28;;;3.90;99.90;;;;;;4927679;29;20047;-85
2024/02/25 01:06:22;;;;;;;9.95;4.68;;;4.10;99.90;;;;;;4938192;29;20150;-86
2024/02/25 01:08:48;;;;;;;9.20;4.50;;;3.80;99.90;;;;;;4931267;29;20123;-85
2024/02/25 01:11:15;;;;;;;10.30;4.40;;;4.30;99.90;;;;;;4937567;29;20828;-86
2024/02/25 01:13:41;;;;;;;7.43;4.55;;;4.20;99.90;;;;;;4936703;29;20127;-86
2024/02/25 01:16:08;;;;;;;11.38;4.45;;;3.80;99.90;;;;;;4938419;29;20043;-86
2024/02/25 01:18:35;;;;;;;8.48;4.38;;;3.80;99.90;;;;;;4938247;29;20039;-86
2024/02/25 01:21:02;;;;;;;7.75;4.63;;;3.80;99.90;;;;;;4936196;29;20036;-86
2024/02/25 01:23:29;;;;;;;7.13;4.32;;;3.70;99.90;;;;;;4938835;29;20047;-86
2024/02/25 01:25:55;;;;;;;7.82;4.47;;;3.70;99.90;;;;;;4938307;29;20039;-86
2024/02/25 01:28:22;;;;;;;9.38;4.53;;;3.70;99.90;;;;;;4934988;29;20040;-85
2024/02/25 01:30:49;;;;;;;10.30;4.70;;;4.00;99.90;;;;;;4939319;29;20047;-86
2024/02/25 01:33:16;;;;;;;7.43;4.22;;;3.70;99.90;;;;;;4937959;29;20092;-86
2024/02/25 01:35:43;;;;;;;8.55;4.57;;;4.10;99.90;;;;;;4951546;29;20520;-86
2024/02/25 01:38:10;;;;;;;7.60;4.28;;;3.80;99.90;;;;;;4938519;29;20047;-86
2024/02/25 01:40:37;;;;;;;8.73;4.63;;;4.50;99.90;;;;;;4955792;29;20102;-86
2024/02/25 01:43:17;;;;;;;8.88;4.28;;;4.40;99.90;;;;;;4938075;29;20497;-86
2024/02/25 01:45:44;;;;;;;9.02;4.55;;;3.80;99.90;;;;;;4938886;29;20047;-86
2024/02/25 01:48:14;;;;;;;9.63;4.60;;;3.80;99.90;;;;;;4938460;29;20043;-86
2024/02/25 01:50:41;;;;;;;8.52;4.25;;;3.80;99.90;;;;;;4940343;29;20046;-86
2024/02/25 01:53:08;;;;;;;8.00;4.47;;;3.80;99.90;;;;;;4938526;29;20040;-86
2024/02/25 01:55:36;;;;;;;8.30;3.92;;;4.80;99.90;;;;;;4954060;29;20082;-86
2024/02/25 01:58:03;;;;;;;9.10;4.32;;;3.90;99.90;;;;;;4938258;29;20071;-86
2024/02/25 02:00:30;;;;;;;7.72;4.32;;;3.80;99.90;;;;;;4938284;29;20122;-86
2024/02/25 02:03:00;;;;;;;7.20;4.50;;;4.30;99.90;;;;;;4941973;29;20056;-86
2024/02/25 02:05:27;;;;;;;7.70;4.30;;;4.50;99.90;;;;;;4926014;29;20114;-86
2024/02/25 02:07:54;;;;;;;7.20;3.97;;;3.80;99.90;;;;;;4937763;29;20208;-86
2024/02/25 02:10:20;;;;;;;9.05;4.35;;;3.80;99.90;;;;;;4931006;29;20072;-86
2024/02/25 02:12:47;;;;;;;6.78;4.20;;;4.30;99.90;;;;;;4934877;29;20531;-86
2024/02/25 02:15:15;;;;;;;6.32;3.85;;;3.80;99.90;;;;;;4929095;29;20092;-86
2024/02/25 02:17:43;;;;;;;6.35;3.85;;;3.80;99.90;;;;;;4922000;29;20717;-86
2024/02/25 02:20:23;;;;;;;8.50;4.13;;;4.30;99.90;;;;;;4938140;29;20482;-86
2024/02/25 02:22:51;;;;;;;7.97;3.90;;;4.00;99.90;;;;;;4950400;29;20099;-86
2024/02/25 02:25:17;;;;;;;7.18;4.10;;;3.80;99.90;;;;;;4953093;29;20118;-86
2024/02/25 02:27:45;;;;;;;7.15;3.75;;;4.80;99.90;;;;;;4937906;29;20106;-86
2024/02/25 02:30:12;;;;;;;7.57;3.83;;;4.60;99.90;;;;;;4938129;29;20042;-86
2024/02/25 02:32:40;;;;;;;6.00;3.28;;;3.80;99.90;;;;;;4937375;29;20101;-86
2024/02/25 02:35:07;;;;;;;7.35;3.38;;;4.00;99.90;;;;;;4937397;29;20051;-86
2024/02/25 02:37:34;;;;;;;6.30;3.25;;;3.80;99.90;;;;;;4937674;29;20043;-86
2024/02/25 02:40:00;;;;;;;5.80;3.50;;;3.80;99.90;;;;;;4937769;29;20039;-86
2024/02/25 02:42:28;;;;;;;7.28;3.10;;;3.80;99.90;;;;;;4950219;29;20107;-86
2024/02/25 02:44:55;;;;;;;5.35;3.03;;;3.80;99.90;;;;;;4932664;29;20556;-86
2024/02/25 02:47:23;;;;;;;7.53;3.13;;;4.40;99.90;;;;;;4937263;29;20119;-86
2024/02/25 02:49:50;;;;;;;8.00;3.00;;;3.80;99.90;;;;;;4953103;29;20098;-86
2024/02/25 02:52:17;;;;;;;5.75;3.05;;;3.90;99.90;;;;;;4937430;29;20039;-86
2024/02/25 02:54:44;;;;;;;6.00;2.80;;;4.70;99.90;;;;;;4934039;29;20118;-86
2024/02/25 02:57:11;;;;;;;8.25;2.75;;;4.10;99.90;;;;;;4938834;29;20459;-86
2024/02/25 02:59:38;;;;;;;4.70;2.35;;;4.00;99.90;;;;;;4945161;29;20409;-86
2024/02/25 03:02:04;;;;;;;5.95;2.60;;;3.90;99.90;;;;;;4925110;29;20035;-86
2024/02/25 03:04:32;;;;;;;4.00;2.10;;;3.90;99.90;;;;;;4933916;29;20417;-86
2024/02/25 03:06:58;;;;;;;6.43;2.50;;;4.10;99.90;;;;;;4930808;29;20044;-86
2024/02/25 03:09:25;;;;;;;7.05;2.35;;;4.80;99.90;;;;;;4930378;29;20044;-86
2024/02/25 03:11:52;;;;;;;6.30;2.67;;;4.00;99.90;;;;;;4937609;29;20040;-86
2024/02/25 03:14:18;;;;;;;9.35;2.47;;;4.20;99.90;;;;;;4937113;29;20043;-86
2024/02/25 03:16:45;;;;;;;4.80;2.10;;;4.00;99.90;;;;;;4949369;29;20047;-86
2024/02/25 03:19:12;;;;;;;4.00;2.05;;;4.00;99.90;;;;;;4932500;29;20044;-86
2024/02/25 03:21:45;;;;;;;6.05;2.30;;;4.60;99.90;;;;;;4933844;29;20046;-86
2024/02/25 03:24:14;;;;;;;6.68;2.33;;;4.00;99.90;;;;;;4934850;29;20059;-86
2024/02/25 03:26:41;;;;;;;4.80;2.28;;;4.00;99.90;;;;;;4942259;29;20103;-86
2024/02/25 03:29:08;;;;;;;5.45;2.45;;;4.00;99.90;;;;;;4936532;29;20044;-86
2024/02/25 03:31:35;;;;;;;6.32;2.35;;;4.20;99.90;;;;;;4947858;29;20496;-86
2024/02/25 03:34:02;;;;;;;5.95;2.38;;;4.40;99.90;;;;;;4954614;29;20066;-86
2024/02/25 03:36:29;;;;;;;7.70;2.42;;;4.10;99.90;;;;;;4952836;29;20130;-86
2024/02/25 03:38:55;;;;;;;4.53;2.17;;;5.10;99.90;;;;;;4933478;29;20122;-86
2024/02/25 03:41:22;;;;;;;4.13;1.90;;;4.00;99.90;;;;;;4933783;29;20048;-86
2024/02/25 03:43:48;;;;;;;4.60;2.40;;;4.10;99.90;;;;;;4936115;29;20071;-86
2024/02/25 03:46:15;;;;;;;6.32;2.20;;;4.00;99.90;;;;;;4944979;29;20040;-86
2024/02/25 03:48:42;;;;;;;4.72;2.00;;;4.00;99.90;;;;;;4936714;29;20371;-86
2024/02/25 03:51:08;;;;;;;4.60;2.05;;;4.90;99.90;;;;;;4936288;29;20086;-86
2024/02/25 03:53:35;;;;;;;4.20;1.92;;;4.00;99.90;;;;;;4946950;29;20048;-86
2024/02/25 03:56:02;;;;;;;6.63;2.40;;;4.10;99.90;;;;;;4952507;29;20541;-86
2024/02/25 03:58:29;;;;;;;4.07;2.10;;;4.00;99.90;;;;;;4934094;29;20040;-85
2024/02/25 04:00:56;;;;;;;6.53;2.10;;;4.40;99.90;;;;;;4927720;29;20079;-86
2024/02/25 04:03:22;;;;;;;3.63;2.00;;;4.10;99.90;;;;;;4955986;29;20067;-86
2024/02/25 04:05:49;;;;;;;5.55;2.17;;;4.10;99.90;;;;;;4928625;29;20138;-86
2024/02/25 04:08:16;;;;;;;4.40;1.95;;;4.10;99.90;;;;;;4937973;29;20051;-85
2024/02/25 04:10:42;;;;;;;3.85;2.00;;;4.10;99.90;;;;;;4940224;29;20067;-86
2024/02/25 04:13:11;;;;;;;5.25;2.10;;;4.70;99.90;;;;;;4939939;29;20095;-86
2024/02/25 04:15:38;;;;;;;4.00;1.85;;;4.70;99.90;;;;;;4939736;29;20066;-85
2024/02/25 04:18:05;;;;;;;4.57;2.17;;;4.90;99.90;;;;;;4940273;29;20142;-85
2024/02/25 04:20:33;;;;;;;3.65;1.95;;;4.00;99.90;;;;;;4935482;29;20040;-85
2024/02/25 04:22:59;;;;;;;3.85;1.95;;;4.10;99.90;;;;;;4939631;29;20062;-85
2024/02/25 04:25:26;;;;;;;4.50;2.10;;;5.00;99.90;;;;;;4955504;29;20047;-85
2024/02/25 04:27:53;;;;;;;4.43;2.10;;;4.10;99.90;;;;;;4940144;29;20126;-85
2024/02/25 04:30:19;;;;;;;5.47;2.30;;;4.70;99.90;;;;;;4942068;29;20122;-86
2024/02/25 04:32:47;;;;;;;4.45;2.20;;;4.00;99.90;;;;;;4927773;29;20509;-86
2024/02/25 04:35:14;;;;;;;5.20;2.05;;;4.30;99.90;;;;;;4937976;29;20102;-85
2024/02/25 04:37:40;;;;;;;4.80;1.92;;;4.00;99.90;;;;;;4920912;29;20048;-85
2024/02/25 04:40:07;;;;;;;5.28;2.10;;;4.10;99.90;;;;;;4934405;29;20044;-86
2024/02/25 04:42:34;;;;;;;3.63;1.65;;;4.00;99.90;;;;;;4934690;29;20052;-86
2024/02/25 04:45:01;;;;;;;4.45;2.13;;;4.90;99.90;;;;;;4935321;29;20383;-86
2024/02/25 04:47:28;;;;;;;3.88;1.67;;;4.00;99.90;;;;;;4939245;29;20036;-86
2024/02/25 04:49:54;;;;;;;4.35;1.80;;;4.40;99.90;;;;;;4951637;29;20075;-85
2024/02/25 04:52:21;;;;;;;4.07;2.03;;;4.00;99.90;;;;;;4924926;29;20047;-86
2024/02/25 04:54:50;;;;;;;4.43;2.10;;;4.10;99.90;;;;;;4954794;29;20040;-85
2024/02/25 04:57:17;;;;;;;4.63;2.05;;;4.10;99.90;;;;;;4938997;29;20079;-86
2024/02/25 04:59:44;;;;;;;4.22;2.03;;;4.10;99.90;;;;;;4939063;29;20082;-85
2024/02/25 05:02:10;;;;;;;6.93;2.30;;;4.10;99.90;;;;;;4949994;29;20807;-86
2024/02/25 05:04:39;;;;;;;3.55;2.10;;;5.10;99.90;;;;;;4939110;29;20043;-85
2024/02/25 05:07:06;;;;;;;3.92;2.03;;;4.10;99.90;;;;;;4955332;29;20047;-86
2024/02/25 05:09:32;;;;;;;4.75;2.38;;;4.10;99.90;;;;;;4938107;29;20485;-85
2024/02/25 05:11:59;;;;;;;4.63;1.85;;;4.50;99.90;;;;;;4924063;29;20615;-85
2024/02/25 05:14:26;;;;;;;4.72;2.00;;;4.20;99.90;;;;;;4952598;29;20044;-86
2024/02/25 05:16:53;;;;;;;5.63;2.30;;;4.20;99.90;;;;;;4953730;29;20049;-86
2024/02/25 05:19:20;;;;;;;6.05;2.42;;;5.10;99.90;;;;;;4938508;29;20040;-85
2024/02/25 05:21:47;;;;;;;4.43;2.30;;;4.20;99.90;;;;;;4938622;29;20051;-85
2024/02/25 05:24:14;;;;;;;5.30;2.60;;;4.30;99.90;;;;;;4951098;29;20044;-85
2024/02/25 05:26:41;;;;;;;5.32;2.45;;;5.00;99.90;;;;;;4929900;29;20039;-85
2024/02/25 05:29:07;;;;;;;6.20;3.00;;;4.20;99.90;;;;;;4935575;29;20086;-85
2024/02/25 05:31:34;;;;;;;5.53;2.70;;;4.20;99.90;;;;;;4939015;29;20505;-86
2024/02/25 05:34:02;;;;;;;4.07;2.47;;;5.00;99.90;;;;;;4933641;29;20060;-86
2024/02/25 05:36:28;;;;;;;7.32;3.22;;;4.30;99.90;;;;;;4930738;29;20123;-86
2024/02/25 05:38:55;;;;;;;7.63;3.00;;;4.30;99.90;;;;;;4948175;29;20127;-86
2024/02/25 05:41:21;;;;;;;7.13;3.00;;;4.30;99.90;;;;;;4937540;29;20050;-86
2024/02/25 05:43:48;;;;;;;5.10;2.67;;;4.60;99.90;;;;;;4938130;29;20544;-85
2024/02/25 05:46:15;;;;;;;5.30;2.80;;;4.30;99.90;;;;;;4938009;29;20044;-86
2024/02/25 05:48:41;;;;;;;5.93;2.65;;;4.30;99.90;;;;;;4935881;29;20106;-85
2024/02/25 05:51:08;;;;;;;5.75;3.10;;;4.30;99.90;;;;;;4938368;29;20445;-85
2024/02/25 05:53:34;;;;;;;5.93;2.95;;;4.80;99.90;;;;;;4937821;29;20039;-86
2024/02/25 05:56:01;;;;;;;4.88;3.00;;;4.30;99.90;;;;;;4938212;29;20390;-86
2024/02/25 05:58:28;;;;;;;4.47;2.70;;;4.30;99.90;;;;;;4943244;29;20046;-86
2024/02/25 06:00:54;;;;;;;8.27;2.90;;;4.70;99.90;;;;;;4938389;29;20055;-85
2024/02/25 06:03:21;;;;;;;6.03;3.33;;;4.40;99.90;;;;;;4938085;29;20512;-86
2024/02/25 06:05:48;;;;;;;8.10;3.20;;;4.50;99.90;;;;;;4928677;29;20041;-86
2024/02/25 06:08:14;;;;;;;7.13;3.25;;;4.60;99.90;;;;;;4953468;29;20036;-86
2024/02/25 06:10:41;;;;;;;7.45;3.40;;;5.20;99.90;;;;;;4937703;29;20490;-86
2024/02/25 06:13:08;;;;;;;6.90;2.97;;;4.40;99.90;;;;;;4937683;29;20046;-86
2024/02/25 06:15:34;;;;;;;6.47;3.38;;;4.70;99.90;;;;;;4942232;29;20046;-86
2024/02/25 06:18:01;;;;;;;11.40;3.55;;;4.40;99.90;;;;;;4958606;29;20417;-86
2024/02/25 06:20:27;;;;;;;8.20;3.42;;;4.40;99.90;;;;;;4937487;29;20044;-85
2024/02/25 06:22:54;;;;;;;6.28;3.35;;;4.50;99.90;;;;;;4927306;29;20126;-85
2024/02/25 06:25:21;;;;;;;7.45;3.17;;;4.40;99.90;;;;;;4937653;29;20047;-85
2024/02/25 06:27:47;;;;;;;5.03;3.05;;;5.30;99.90;;;;;;4937009;29;20059;-85
2024/02/25 06:30:14;;;;;;;6.78;3.50;;;4.40;99.90;;;;;;4933987;29;20040;-86
2024/02/25 06:32:41;;;;;;;5.90;3.65;;;4.40;99.90;;;;;;4937351;29;20052;-86
2024/02/25 06:35:08;;;;;;;9.98;3.70;;;4.50;99.90;;;;;;4937567;29;20051;-86
2024/02/25 06:37:35;;;;;;;7.80;3.45;;;4.40;99.90;;;;;;4949237;29;20106;-86
2024/02/25 06:40:03;;;;;;;5.82;3.20;;;4.40;99.90;;;;;;4936322;29;20050;-86
2024/02/25 06:42:29;;;;;;;6.60;3.58;;;4.40;99.90;;;;;;4926592;29;20062;-86
2024/02/25 06:44:56;;;;;;;6.40;3.63;;;4.50;99.90;;;;;;4937457;29;20135;-86
2024/02/25 06:47:23;;;;;;;6.60;3.63;;;4.50;99.90;;;;;;4937192;29;20048;-86
2024/02/25 06:49:49;;;;;;;6.72;3.60;;;4.40;99.90;;;;;;4936922;29;20050;-86
2024/02/25 06:52:16;;;;;;;6.50;3.63;;;4.50;99.90;;;;;;4936573;29;20047;-86
2024/02/25 06:54:46;;;;;;;8.13;3.65;;;5.20;99.90;;;;;;4943309;29;20089;-85
2024/02/25 06:57:15;;;;;;;5.93;3.65;;;5.30;99.90;;;;;;4943350;29;20086;-86
2024/02/25 06:59:41;;;;;;;7.50;3.90;;;4.60;99.90;;;;;;4937659;29;20086;-86
2024/02/25 07:02:08;;;;;;;7.20;3.70;;;4.50;99.90;;;;;;4952362;29;20847;-86
2024/02/25 07:04:35;;;;;;;7.78;3.60;;;4.50;99.90;;;;;;4933943;29;20042;-86
2024/02/25 07:07:03;;;;;;;7.78;3.70;;;4.50;99.90;;;;;;4936619;29;20529;-86
2024/02/25 07:09:29;;;;;;;5.93;3.60;;;4.60;99.90;;;;;;4936745;29;20561;-86
2024/02/25 07:11:56;;;;;;;7.30;3.35;;;5.10;99.90;;;;;;4924957;29;20047;-86
2024/02/25 07:14:22;;;;;;;6.15;3.20;;;4.50;99.90;;;;;;4945005;29;20069;-86
2024/02/25 07:16:49;;;;;;;7.40;3.42;;;4.50;99.90;;;;;;4923152;29;20067;-86
2024/02/25 07:19:16;;;;;;;4.90;3.10;;;4.50;99.90;;;;;;4932140;29;20047;-86
2024/02/25 07:21:42;;;;;;;6.13;3.47;;;4.60;99.90;;;;;;4950360;29;20040;-86
2024/02/25 07:24:09;;;;;;;6.18;3.25;;;4.60;99.90;;;;;;4937034;29;20405;-86
2024/02/25 07:26:35;;;;;;;6.13;3.38;;;4.50;99.90;;;;;;4949561;29;20044;-86
2024/02/25 07:29:02;;;;;;;6.88;3.45;;;4.60;99.90;;;;;;4936940;29;20036;-86
2024/02/25 07:31:29;;;;;;;7.88;3.38;;;5.50;99.90;;;;;;4936803;29;20044;-86
2024/02/25 07:33:55;;;;;;;6.55;3.30;;;5.20;99.90;;;;;;4955330;29;20143;-86
2024/02/25 07:36:22;;;;;;;5.97;3.50;;;4.60;99.90;;;;;;4934749;29;20130;-86
2024/02/25 07:38:48;;;;;;;6.22;3.08;;;4.60;99.90;;;;;;4935374;29;20051;-86
2024/02/25 07:41:15;;;;;;;8.07;3.00;;;4.60;99.90;;;;;;4954866;29;20140;-86
2024/02/25 07:43:42;;;;;;;5.20;2.72;;;4.70;99.90;;;;;;4956034;29;20070;-87
2024/02/25 07:46:08;;;;;;;6.43;3.28;;;4.70;99.90;;;;;;4929605;29;20792;-86
2024/02/25 07:48:39;;;;;;;8.40;3.38;;;5.00;99.90;;;;;;4956359;29;20043;-86
2024/02/25 07:51:06;;;;;;;6.30;3.08;;;5.00;99.90;;;;;;4941036;29;20067;-86
2024/02/25 07:53:33;;;;;;;4.43;2.80;;;4.90;99.90;;;;;;4960292;29;20106;-87
2024/02/25 07:55:59;;;;;;;7.50;3.22;;;5.70;99.90;;;;;;4952820;29;20100;-86
2024/02/25 07:58:26;;;;;;;8.07;3.30;;;4.70;99.90;;;;;;4936346;29;20113;-86
2024/02/25 08:00:52;;;;;;;5.90;3.10;;;5.00;99.90;;;;;;4940416;29;20062;-86
2024/02/25 08:03:19;;;;;;;5.38;2.88;;;4.80;99.90;;;;;;4939338;29;20036;-86
2024/02/25 08:05:46;;;;;;;6.28;2.92;;;4.80;99.90;;;;;;4955731;29;20051;-86
2024/02/25 08:08:13;;;;;;;5.90;3.00;;;4.90;99.90;;;;;;4939884;29;20050;-86
2024/02/25 08:10:40;;;;;;;10.20;3.22;;;4.80;99.90;;;;;;4957070;29;20114;-86
2024/02/25 08:13:06;;;;;;;5.70;3.10;;;5.60;99.90;;;;;;4940027;29;20031;-86
2024/02/25 08:15:33;;;;;;;5.65;3.20;;;4.90;99.90;;;;;;4934863;29;20114;-86
2024/02/25 08:18:00;;;;;;;5.20;3.17;;;4.90;99.90;;;;;;4950687;29;20063;-86
2024/02/25 08:20:26;;;;;;;5.28;2.85;;;4.90;99.90;;;;;;4924246;29;20052;-86
2024/02/25 08:22:53;;;;;;;8.57;3.10;;;4.90;99.90;;;;;;4939600;29;20051;-86
2024/02/25 08:25:20;;;;;;;6.13;3.28;;;5.00;99.90;;;;;;4939476;29;20099;-85
2024/02/25 08:27:47;;;;;;;5.95;3.33;;;5.00;99.90;;;;;;4939816;29;20123;-86
2024/02/25 08:30:14;;;;;;;5.00;3.30;;;4.90;99.90;;;;;;4940978;29;20147;-86
2024/02/25 08:32:40;;;;;;;4.95;3.13;;;4.90;99.90;;;;;;4939005;29;20130;-86
2024/02/25 08:35:07;;;;;;;6.45;3.33;;;5.00;99.90;;;;;;4934169;29;20107;-86
2024/02/25 08:37:34;;;;;;;6.68;3.55;;;5.00;99.90;;;;;;4949715;29;20556;-85
2024/02/25 08:40:01;;;;;;;5.88;3.33;;;5.50;99.90;;;;;;4939550;29;20046;-86
2024/02/25 08:42:27;;;;;;;6.50;3.50;;;5.00;99.90;;;;;;4939425;29;20051;-86
2024/02/25 08:44:54;;;;;;;5.78;3.08;;;5.10;99.90;;;;;;4955013;29;20159;-86
2024/02/25 08:47:21;;;;;;;7.13;3.17;;;5.00;99.90;;;;;;4939771;29;20044;-86
2024/02/25 08:49:48;;;;;;;6.82;3.50;;;5.60;99.90;;;;;;4938628;29;20036;-86
2024/02/25 08:52:14;;;;;;;7.72;3.47;;;5.20;99.90;;;;;;4938819;29;20039;-86
2024/02/25 08:54:43;;;;;;;5.95;3.25;;;5.20;99.90;;;;;;4936846;29;20028;-86
2024/02/25 08:57:10;;;;;;;7.32;3.88;;;5.20;99.90;;;;;;4939338;29;20039;-85
2024/02/25 08:59:36;;;;;;;5.57;3.35;;;5.30;99.90;;;;;;4938646;29;20096;-85
2024/02/25 09:02:04;;;;;;;5.45;3.40;;;5.30;99.90;;;;;;4938756;29;20507;-84
2024/02/25 09:04:31;;;;;;;8.30;2.95;;;6.00;99.90;;;;;;4938712;29;20121;-85
2024/02/25 09:06:59;;;;;;;7.05;3.17;;;5.30;99.90;;;;;;4938626;29;20197;-84
2024/02/25 09:09:27;;;;;;;6.97;3.22;;;5.40;99.90;;;;;;4954019;29;20083;-85
2024/02/25 09:11:54;;;;;;;6.57;3.38;;;6.40;99.90;;;;;;4931575;29;20087;-85
2024/02/25 09:14:21;;;;;;;6.43;3.05;;;5.40;99.90;;;;;;4952411;29;20043;-86
2024/02/25 09:16:48;;;;;;;5.55;3.17;;;6.20;99.90;;;;;;4939841;29;20054;-85
2024/02/25 09:19:15;;;;;;;8.23;3.92;;;5.50;99.90;;;;;;4935683;29;20119;-86
2024/02/25 09:21:42;;;;;;;8.00;3.70;;;6.50;99.90;;;;;;4937162;29;20040;-85
2024/02/25 09:24:09;;;;;;;6.47;3.97;;;6.40;99.90;;;;;;4938520;29;20035;-85
2024/02/25 09:26:35;;;;;;;9.10;3.70;;;5.70;99.90;;;;;;4938601;29;20050;-85
2024/02/25 09:29:02;;;;;;;7.22;3.63;;;5.70;99.90;;;;;;4937900;29;20035;-84
2024/02/25 09:31:29;;;;;;;9.38;3.67;;;5.70;99.90;;;;;;4938132;29;20043;-84
2024/02/25 09:33:56;;;;;;;8.40;3.72;;;6.30;99.90;;;;;;4936283;29;20059;-84
2024/02/25 09:36:26;;;;;;;6.95;4.03;;;6.80;99.90;;;;;;4937531;29;20074;-85
2024/02/25 09:38:53;;;;;;;8.43;4.28;;;6.00;99.90;;;;;;4937517;29;20497;-85
2024/02/25 09:41:39;;;;;;;7.30;3.75;;;5.90;99.90;;;;;;4938166;29;20044;-85
2024/02/25 09:44:24;;;;;;;8.20;4.32;;;5.90;99.90;;;;;;4934900;29;20055;-86
2024/02/25 09:46:52;;;;;;;8.07;4.35;;;6.00;99.90;;;;;;4949648;29;20059;-85
2024/02/25 09:49:19;;;;;;;6.75;4.10;;;6.00;99.90;;;;;;4938067;29;20071;-84
2024/02/25 09:51:48;;;;;;;7.38;4.20;;;6.10;99.90;;;;;;4937613;29;20032;-85
2024/02/25 09:54:16;;;;;;;8.85;4.28;;;6.20;99.90;;;;;;4937791;29;20070;-84
2024/02/25 09:56:50;;;;;;;6.65;4.00;;;6.30;99.90;;;;;;4935467;29;20039;-85
2024/02/25 09:59:17;;;;;;;9.43;4.00;;;6.30;99.90;;;;;;4941251;29;20055;-85
2024/02/25 10:01:48;;;;;;;7.75;4.32;;;6.50;99.90;;;;;;4935032;29;20050;-85
2024/02/25 10:04:15;;;;;;;7.18;4.22;;;6.50;99.90;;;;;;4939536;29;20097;-84
2024/02/25 10:06:45;;;;;;;6.93;3.97;;;6.50;99.90;;;;;;4952616;29;20505;-85
2024/02/25 10:09:12;;;;;;;7.05;3.78;;;7.00;99.90;;;;;;4936172;29;20039;-85
2024/02/25 10:11:41;;;;;;;7.18;4.28;;;7.90;99.90;;;;;;4936364;29;20117;-85
2024/02/25 10:14:09;;;;;;;6.95;4.20;;;6.80;99.90;;;;;;4942105;29;20043;-85
2024/02/25 10:16:35;;;;;;;8.27;4.15;;;6.80;99.90;;;;;;4948772;29;20155;-85
2024/02/25 10:19:02;;;;;;;6.82;4.18;;;6.80;99.90;;;;;;4936925;29;20533;-85
2024/02/25 10:21:28;;;;;;;7.78;3.83;;;6.80;99.90;;;;;;4928029;29;20078;-85
2024/02/25 10:23:55;;;;;;;7.78;4.15;;;6.80;99.90;;;;;;4953337;29;20035;-85
2024/02/25 10:26:24;;;;;;;7.13;4.10;;;7.50;99.90;;;;;;4951589;29;20047;-85
2024/02/25 10:29:05;;;;;;;6.47;3.95;;;6.80;99.90;;;;;;4937532;29;20131;-85
2024/02/25 10:31:33;;;;;;;7.18;4.32;;;7.80;99.90;;;;;;4955024;29;20032;-85
2024/02/25 10:33:59;;;;;;;7.20;4.32;;;6.90;99.90;;;;;;4939396;29;20056;-86
2024/02/25 10:36:26;;;;;;;7.40;4.10;;;7.40;99.90;;;;;;4953409;29;20505;-86
2024/02/25 10:38:57;;;;;;;6.50;4.03;;;6.90;99.90;;;;;;4935044;29;20048;-84
2024/02/25 10:41:26;;;;;;;7.32;4.47;;;7.70;99.90;;;;;;4936579;29;20497;-84
2024/02/25 10:44:12;;;;;;;6.60;3.45;;;7.30;99.90;;;;;;4937283;29;20044;-86
2024/02/25 10:46:49;;;;;;;6.93;4.30;;;6.90;99.90;;;;;;4937445;29;20449;-86
2024/02/25 10:49:16;;;;;;;6.88;4.50;;;7.60;99.90;;;;;;4926613;29;20040;-86
2024/02/25 10:51:43;;;;;;;7.28;4.47;;;7.00;99.90;;;;;;4923016;29;20094;-85
2024/02/25 10:54:15;;;;;;;8.10;4.15;;;7.00;99.90;;;;;;4934139;29;20454;-86
2024/02/25 10:56:42;;;;;;;8.68;4.57;;;7.00;99.90;;;;;;4948955;29;20052;-85
2024/02/25 10:59:10;;;;;;;7.97;4.70;;;7.70;99.90;;;;;;4937258;29;20449;-85
2024/02/25 11:01:38;;;;;;;6.68;4.10;;;7.10;99.90;;;;;;4936985;29;20094;-85
2024/02/25 11:04:06;;;;;;;6.82;4.00;;;7.40;99.90;;;;;;4929148;29;20055;-86
2024/02/25 11:06:42;;;;;;;7.32;4.47;;;8.00;99.90;;;;;;4926224;29;20123;-86
2024/02/25 11:09:13;;;;;;;7.00;4.28;;;7.00;99.90;;;;;;4936763;29;20075;-86
2024/02/25 11:11:44;;;;;;;6.85;4.38;;;7.10;99.90;;;;;;4937997;29;20099;-85
2024/02/25 11:14:18;;;;;;;7.43;4.38;;;7.90;99.90;;;;;;4934065;29;20087;-86
2024/02/25 11:16:49;;;;;;;7.97;4.50;;;7.10;99.90;;;;;;4937196;29;20115;-87
2024/02/25 11:19:16;;;;;;;6.85;4.15;;;7.20;99.90;;;;;;4936943;29;20127;-86
2024/02/25 11:21:43;;;;;;;7.57;4.60;;;7.20;99.90;;;;;;4936855;29;20122;-86
2024/02/25 11:24:12;;;;;;;7.85;4.70;;;8.00;99.90;;;;;;4946033;29;20480;-86
2024/02/25 11:26:42;;;;;;;7.15;4.63;;;7.40;99.90;;;;;;4945549;29;20083;-86
2024/02/25 11:29:24;;;;;;;9.32;4.53;;;7.30;99.90;;;;;;4937516;29;20039;-86
2024/02/25 11:31:58;;;;;;;7.68;4.70;;;7.30;99.90;;;;;;4928913;29;20454;-86
2024/02/25 11:34:28;;;;;;;6.47;4.25;;;7.30;99.90;;;;;;4949573;29;20072;-86
2024/02/25 11:36:59;;;;;;;6.78;4.10;;;8.00;99.90;;;;;;4952451;29;20066;-86
2024/02/25 11:39:30;;;;;;;6.60;4.05;;;7.40;99.90;;;;;;4953376;29;20035;-85
2024/02/25 11:42:04;;;;;;;7.10;4.35;;;7.40;99.90;;;;;;4939328;29;20050;-86
2024/02/25 11:44:34;;;;;;;8.50;4.63;;;7.50;99.90;;;;;;4930539;29;20048;-86
2024/02/25 11:47:05;;;;;;;11.20;6.05;;;7.60;99.90;;;;;;4935867;29;20051;-86
2024/02/25 11:49:33;;;;;;;9.05;4.65;;;7.70;99.90;;;;;;4949009;29;20041;-86
2024/02/25 11:52:01;;;;;;;7.80;4.05;;;7.90;99.90;;;;;;4962192;29;20039;-86
2024/02/25 11:54:31;;;;;;;7.47;4.63;;;7.80;99.90;;;;;;4936911;29;20394;-87
2024/02/25 11:56:58;;;;;;;7.70;4.35;;;7.90;99.90;;;;;;4934084;29;20047;-87
2024/02/25 11:59:25;;;;;;;6.47;4.35;;;7.90;99.90;;;;;;4952606;29;20043;-86
2024/02/25 12:01:52;;;;;;;7.18;4.20;;;7.80;99.90;;;;;;4949163;29;20051;-87
2024/02/25 12:04:19;;;;;;;6.50;4.10;;;8.60;99.90;;;;;;4917959;29;20051;-86
2024/02/25 12:06:46;;;;;;;7.75;4.18;;;8.30;99.90;;;;;;4931651;29;20039;-87
2024/02/25 12:09:13;;;;;;;7.65;4.70;;;7.80;99.90;;;;;;4936796;29;20039;-86
2024/02/25 12:11:40;;;;;;;7.50;4.68;;;7.90;99.90;;;;;;4936485;29;20161;-86
2024/02/25 12:14:20;;;;;;;6.68;4.20;;;7.80;99.90;;;;;;4933485;29;20044;-86
2024/02/25 12:16:48;;;;;;;8.18;4.03;;;7.80;99.90;;;;;;4927813;29;20078;-86
2024/02/25 12:19:18;;;;;;;6.88;4.10;;;7.80;99.90;;;;;;4936240;29;20050;-86
2024/02/25 12:21:49;;;;;;;10.45;3.75;;;7.70;99.90;;;;;;4936304;29;20126;-87
2024/02/25 12:24:17;;;;;;;5.93;3.55;;;7.60;99.90;;;;;;4936770;29;20504;-87
2024/02/25 12:27:18;;;;;;;6.65;3.85;;;7.70;99.90;;;;;;4937918;29;20409;-86
2024/02/25 12:29:49;;;;;;;8.32;3.85;;;7.70;99.90;;;;;;4939634;29;20485;-86
2024/02/25 12:32:17;;;;;;;7.20;4.30;;;7.90;99.90;;;;;;4939515;29;20063;-86
2024/02/25 12:34:44;;;;;;;6.65;4.25;;;7.90;99.90;;;;;;4927520;29;20040;-87
2024/02/25 12:37:14;;;;;;;16.90;5.68;;;8.40;99.90;;;;;;4943409;29;20163;-87
2024/02/25 12:39:41;;;;;;;8.20;4.53;;;8.80;99.90;;;;;;4955363;29;20035;-87
2024/02/25 12:42:09;;;;;;;7.40;4.53;;;8.00;99.90;;;;;;4932492;29;20040;-87
2024/02/25 12:44:36;;;;;;;6.57;4.00;;;8.10;99.90;;;;;;4923099;29;20040;-86
2024/02/25 12:47:02;;;;;;;7.60;4.38;;;8.90;99.90;;;;;;4936677;29;20493;-86
2024/02/25 12:49:29;;;;;;;6.32;3.83;;;8.10;99.90;;;;;;4939390;29;20036;-87
2024/02/25 12:51:56;;;;;;;6.03;3.70;;;8.10;99.90;;;;;;4947358;29;20086;-86
2024/02/25 12:54:23;;;;;;;6.60;4.05;;;8.00;99.90;;;;;;4939741;29;20044;-87
2024/02/25 12:56:49;;;;;;;6.88;4.50;;;8.40;99.90;;;;;;4940627;29;20051;-86
2024/02/25 12:59:16;;;;;;;7.50;4.55;;;8.00;99.90;;;;;;4939202;29;20043;-86